Broughton, Illinois
Current Conditions -  °F | °C
As of 8:35 AM on Monday 26 Jan 2015 (Local Time) from KHSB Reporting Station
Overcast Overcast  
Wind Chill: 21°   Ceiling: 1800
Heat Index: 29°   Visibility: 10mi
Dew Point: 24°   Wind: 8mph
Humidity: 81%   Direction: 310°NW
Pressure: 30.05"   Gusts: NA
Location:  37.93°N, 88.46°W
Report Text: KHSB 261435Z AUTO 31007KT 10SM OVC018 M02/M05 A3005 RMK AO2 T10181046
Loading
Personal Weather Stations






























Interactive Weather Map New forecast layout! Learn more

10-Day Weather Forecast

Advertisements
Track Severe Weather on mobile